No particular awareness of the weather is required.    There are no Weather-warnings


Meteo18 Weather Cam more information Meteo18 Weather Cam


Thunder radar more information blitzortung!


Rain radar more information rain snow radar


Visit our other weather sites:

Template documentation
and downloads

And another site



Weather Underground History page Text

Daily Summary for November 7, 2016 Units:  Metric    English   Both
« Previous Day
Next Day »
Daily Weekly Monthly Yearly Custom
  High: Low: Average:
Temperature: 5.0 °C 0.4 °C 2.4 °C
Dew Point: 4.6 °C 0.0 °C 1.8 °C
Humidity: 97 % 91 % 96 %
Wind Speed: 32.2 km/h 0.0 km/h 7.4 km/h
Wind Gust: 35.4 km/h - -
Wind:- - WSW
Pressure: 1010.7 hPa 1007.7 hPa -
Precipitation: 5.8 mm    
Historical Graphs
 
 
Tabular Data for November 7, 2016
Time Temperature Dew Point Pressure Wind Wind Speed Wind Gust Humidity Rainfall Rate (Hourly)
00:07 2.5 °C 1.2 °C 1008.4 hPa SW 3.2 km/h 14.5 km/h 91 % 0.0 mm
00:12 2.4 °C 1.1 °C 1008.4 hPa WSW 4.8 km/h 14.5 km/h 91 % 0.0 mm
00:17 2.4 °C 1.1 °C 1008.4 hPa West 1.6 km/h 14.5 km/h 91 % 0.0 mm
00:32 2.1 °C 0.9 °C 1008.4 hPa WSW 3.2 km/h 9.7 km/h 92 % 0.0 mm
00:42 2.0 °C 1.0 °C 1008.4 hPa WSW 3.2 km/h 6.4 km/h 93 % 0.0 mm
00:47 1.9 °C 0.9 °C 1008.4 hPa WSW 1.6 km/h 6.4 km/h 93 % 0.0 mm
00:52 1.8 °C 0.9 °C 1008.4 hPa SW 3.2 km/h 6.4 km/h 94 % 0.0 mm
00:57 1.8 °C 0.9 °C 1008.4 hPa WSW 3.2 km/h 6.4 km/h 94 % 0.0 mm
01:02 1.8 °C 0.9 °C 1008.4 hPa SW 1.6 km/h 6.4 km/h 94 % 0.0 mm
01:07 1.7 °C 0.8 °C 1008.4 hPa SW 4.8 km/h 6.4 km/h 94 % 0.0 mm
01:12 1.7 °C 0.8 °C 1008.4 hPa SW 3.2 km/h 4.8 km/h 94 % 0.0 mm
01:17 1.7 °C 0.8 °C 1008.4 hPa SW 3.2 km/h 4.8 km/h 94 % 0.0 mm
01:22 1.7 °C 1.0 °C 1008.4 hPa SSW 1.6 km/h 6.4 km/h 95 % 0.0 mm
01:27 1.6 °C 0.9 °C 1008.4 hPa Calm   6.4 km/h 95 % 0.0 mm
01:32 1.7 °C 1.0 °C 1008.4 hPa West 1.6 km/h 4.8 km/h 95 % 0.0 mm
01:37 1.7 °C 1.0 °C 1008.4 hPa SSW 1.6 km/h 4.8 km/h 95 % 0.0 mm
01:42 1.9 °C 1.2 °C 1008.4 hPa WSW 3.2 km/h 9.7 km/h 95 % 0.0 mm
01:47 2.1 °C 1.4 °C 1008.4 hPa WSW 3.2 km/h 11.3 km/h 95 % 0.0 mm
01:52 2.2 °C 1.3 °C 1008.4 hPa WSW 6.4 km/h 12.9 km/h 94 % 0.0 mm
01:57 2.2 °C 1.3 °C 1008.4 hPa WNW 6.4 km/h 12.9 km/h 94 % 0.0 mm
02:02 2.2 °C 1.2 °C 1008.4 hPa West 6.4 km/h 12.9 km/h 93 % 0.0 mm
02:07 2.2 °C 1.2 °C 1008.4 hPa West 9.7 km/h 11.3 km/h 93 % 0.0 mm
02:12 2.2 °C 1.2 °C 1008.4 hPa WSW 4.8 km/h 12.9 km/h 93 % 0.0 mm
02:17 2.2 °C 1.2 °C 1008.4 hPa WSW 1.6 km/h 12.9 km/h 93 % 0.0 mm
02:22 2.2 °C 1.2 °C 1008.4 hPa WSW 1.6 km/h 12.9 km/h 93 % 0.0 mm
02:27 2.1 °C 1.1 °C 1008.4 hPa SW 6.4 km/h 11.3 km/h 93 % 0.0 mm
02:32 2.1 °C 1.2 °C 1008.4 hPa West 4.8 km/h 9.7 km/h 94 % 0.0 mm
02:37 1.9 °C 1.0 °C 1008.4 hPa SSW 8.0 km/h 11.3 km/h 94 % 0.0 mm
02:42 1.8 °C 0.9 °C 1008.4 hPa WSW 4.8 km/h 11.3 km/h 94 % 0.0 mm
02:47 1.8 °C 0.9 °C 1008.7 hPa West 1.6 km/h 11.3 km/h 94 % 0.0 mm
02:52 1.7 °C 0.8 °C 1008.7 hPa WSW 1.6 km/h 11.3 km/h 94 % 0.0 mm
02:57 1.7 °C 0.8 °C 1008.4 hPa SW 4.8 km/h 11.3 km/h 94 % 0.0 mm
03:02 1.6 °C 0.7 °C 1008.7 hPa WSW 9.7 km/h 12.9 km/h 94 % 0.0 mm
03:07 1.4 °C 0.7 °C 1008.7 hPa SW 4.8 km/h 12.9 km/h 95 % 0.0 mm
03:12 1.4 °C 0.7 °C 1008.7 hPa WSW 8.0 km/h 12.9 km/h 95 % 0.0 mm
03:17 1.4 °C 0.7 °C 1008.7 hPa SW 6.4 km/h 17.7 km/h 95 % 0.0 mm
03:22 1.3 °C 0.6 °C 1008.7 hPa WSW 1.6 km/h 17.7 km/h 95 % 0.0 mm
03:32 1.3 °C 0.7 °C 1008.7 hPa West 8.0 km/h 12.9 km/h 96 % 0.0 mm
03:37 1.3 °C 0.7 °C 1008.7 hPa WSW 1.6 km/h 12.9 km/h 96 % 0.0 mm
03:42 1.3 °C 0.7 °C 1008.7 hPa SW 4.8 km/h 12.9 km/h 96 % 0.0 mm
03:47 1.3 °C 0.7 °C 1008.7 hPa WSW 4.8 km/h 12.9 km/h 96 % 0.0 mm
03:52 1.2 °C 0.6 °C 1008.4 hPa WNW 4.8 km/h 11.3 km/h 96 % 0.0 mm
03:57 1.2 °C 0.6 °C 1008.4 hPa West 4.8 km/h 11.3 km/h 96 % 0.0 mm
04:02 1.2 °C 0.6 °C 1008.4 hPa WSW 3.2 km/h 11.3 km/h 96 % 0.0 mm
04:12 1.1 °C 0.5 °C 1008.4 hPa WSW 4.8 km/h 11.3 km/h 96 % 0.0 mm
04:17 1.0 °C 0.4 °C 1008.4 hPa SW 9.7 km/h 16.1 km/h 96 % 0.0 mm
04:22 0.9 °C 0.3 °C 1008.4 hPa SW 8.0 km/h 16.1 km/h 96 % 0.0 mm
04:27 0.9 °C 0.3 °C 1008.4 hPa SW 8.0 km/h 16.1 km/h 96 % 0.0 mm
04:32 0.8 °C 0.2 °C 1008.7 hPa WSW 1.6 km/h 12.9 km/h 96 % 0.0 mm
04:37 0.8 °C 0.2 °C 1008.7 hPa SW 3.2 km/h 12.9 km/h 96 % 0.0 mm
04:42 0.8 °C 0.2 °C 1008.7 hPa SW 6.4 km/h 12.9 km/h 96 % 0.0 mm
04:47 0.8 °C 0.2 °C 1008.7 hPa SW 4.8 km/h 12.9 km/h 96 % 0.0 mm
04:52 0.8 °C 0.2 °C 1008.7 hPa SW 6.4 km/h 12.9 km/h 96 % 0.0 mm
04:57 0.7 °C 0.1 °C 1008.7 hPa West 6.4 km/h 11.3 km/h 96 % 0.0 mm
05:02 0.7 °C 0.1 °C 1008.7 hPa WSW 9.7 km/h 12.9 km/h 96 % 0.0 mm
05:12 0.6 °C 0.0 °C 1008.7 hPa SW 14.5 km/h 14.5 km/h 96 % 0.0 mm
05:17 0.6 °C 0.2 °C 1008.7 hPa West 8.0 km/h 14.5 km/h 97 % 0.0 mm
05:22 0.6 °C 0.2 °C 1008.7 hPa SW 4.8 km/h 16.1 km/h 97 % 0.0 mm
05:27 0.6 °C 0.2 °C 1008.7 hPa SW 3.2 km/h 16.1 km/h 97 % 0.0 mm
05:32 0.7 °C 0.3 °C 1008.7 hPa SW 6.4 km/h 14.5 km/h 97 % 0.0 mm
05:37 0.6 °C 0.2 °C 1008.7 hPa SW 1.6 km/h 11.3 km/h 97 % 0.0 mm
05:42 0.6 °C 0.2 °C 1008.7 hPa SW 8.0 km/h 11.3 km/h 97 % 0.0 mm
05:47 0.6 °C 0.2 °C 1008.7 hPa WSW 3.2 km/h 16.1 km/h 97 % 0.0 mm
05:52 0.6 °C 0.2 °C 1008.7 hPa WSW 4.8 km/h 16.1 km/h 97 % 0.0 mm
05:57 0.6 °C 0.2 °C 1008.7 hPa Calm   14.5 km/h 97 % 0.0 mm
06:02 0.7 °C 0.3 °C 1008.7 hPa SW 9.7 km/h 12.9 km/h 97 % 0.0 mm
06:07 0.7 °C 0.3 °C 1008.7 hPa Calm   12.9 km/h 97 % 0.0 mm
06:12 0.7 °C 0.3 °C 1008.7 hPa WSW 8.0 km/h 12.9 km/h 97 % 0.0 mm
06:17 0.7 °C 0.3 °C 1008.7 hPa SW 8.0 km/h 12.9 km/h 97 % 0.0 mm
06:22 0.6 °C 0.2 °C 1008.7 hPa SW 6.4 km/h 14.5 km/h 97 % 0.0 mm
06:27 0.6 °C 0.2 °C 1008.7 hPa WSW 8.0 km/h 14.5 km/h 97 % 0.0 mm
06:32 0.6 °C 0.2 °C 1008.7 hPa WSW 4.8 km/h 14.5 km/h 97 % 0.0 mm
06:37 0.6 °C 0.2 °C 1008.7 hPa WSW 6.4 km/h 14.5 km/h 97 % 0.0 mm
06:42 0.6 °C 0.2 °C 1008.7 hPa SW 11.3 km/h 14.5 km/h 97 % 0.0 mm
06:47 0.5 °C 0.1 °C 1008.7 hPa SW 8.0 km/h 17.7 km/h 97 % 0.0 mm
06:52 0.5 °C 0.1 °C 1008.7 hPa West 3.2 km/h 17.7 km/h 97 % 0.0 mm
06:57 0.5 °C 0.1 °C 1008.7 hPa SSW 6.4 km/h 17.7 km/h 97 % 0.0 mm
07:02 0.5 °C 0.1 °C 1008.7 hPa SW 4.8 km/h 14.5 km/h 97 % 0.0 mm
07:07 0.4 °C 0.0 °C 1008.7 hPa SW 4.8 km/h 16.1 km/h 97 % 0.0 mm
07:12 0.4 °C 0.0 °C 1008.7 hPa SSW 3.2 km/h 16.1 km/h 97 % 0.0 mm
07:17 0.4 °C 0.0 °C 1008.7 hPa WSW 3.2 km/h 17.7 km/h 97 % 0.0 mm
07:22 0.4 °C 0.0 °C 1008.7 hPa WSW 6.4 km/h 17.7 km/h 97 % 0.0 mm
07:32 0.4 °C 0.0 °C 1009.0 hPa Calm   9.7 km/h 97 % 0.0 mm
07:37 0.4 °C 0.0 °C 1009.0 hPa South 4.8 km/h 11.3 km/h 97 % 0.0 mm
07:42 0.4 °C 0.0 °C 1009.0 hPa SW 12.9 km/h 12.9 km/h 97 % 0.0 mm
07:47 0.4 °C 0.0 °C 1009.0 hPa WSW 8.0 km/h 16.1 km/h 97 % 0.0 mm
07:52 0.4 °C 0.0 °C 1009.0 hPa West 4.8 km/h 16.1 km/h 97 % 0.0 mm
07:57 0.4 °C 0.0 °C 1009.0 hPa West 3.2 km/h 16.1 km/h 97 % 0.0 mm
08:02 0.4 °C 0.0 °C 1009.0 hPa SW 6.4 km/h 17.7 km/h 97 % 0.0 mm
08:12 0.4 °C 0.0 °C 1009.4 hPa WSW 12.9 km/h 19.3 km/h 97 % 0.0 mm
08:17 0.4 °C 0.0 °C 1009.4 hPa Calm   19.3 km/h 97 % 0.0 mm
08:22 0.4 °C 0.0 °C 1009.4 hPa WSW 3.2 km/h 16.1 km/h 97 % 0.0 mm
08:27 0.4 °C 0.0 °C 1009.4 hPa West 4.8 km/h 14.5 km/h 97 % 0.0 mm
08:32 0.4 °C 0.0 °C 1009.4 hPa SSW 3.2 km/h 8.0 km/h 97 % 0.0 mm
08:37 0.4 °C 0.0 °C 1009.4 hPa SW 6.4 km/h 6.4 km/h 97 % 0.0 mm
08:42 0.4 °C 0.0 °C 1009.4 hPa SW 4.8 km/h 12.9 km/h 97 % 0.0 mm
08:47 0.4 °C 0.0 °C 1009.4 hPa SW 1.6 km/h 12.9 km/h 97 % 0.0 mm
08:52 0.6 °C 0.2 °C 1009.4 hPa West 6.4 km/h 11.3 km/h 97 % 0.0 mm
09:02 0.6 °C 0.2 °C 1009.4 hPa SW 6.4 km/h 17.7 km/h 97 % 0.0 mm
09:07 0.6 °C 0.2 °C 1009.4 hPa WSW 12.9 km/h 17.7 km/h 97 % 0.0 mm
09:12 0.7 °C 0.3 °C 1009.4 hPa West 4.8 km/h 17.7 km/h 97 % 0.0 mm
09:17 0.7 °C 0.3 °C 1009.4 hPa WSW 4.8 km/h 20.9 km/h 97 % 0.0 mm
09:22 0.8 °C 0.4 °C 1009.4 hPa SW 9.7 km/h 20.9 km/h 97 % 0.0 mm
09:27 0.9 °C 0.5 °C 1009.7 hPa SSW 11.3 km/h 24.1 km/h 97 % 0.0 mm
09:32 1.0 °C 0.6 °C 1009.7 hPa SW 8.0 km/h 24.1 km/h 97 % 0.0 mm
09:37 1.0 °C 0.6 °C 1009.7 hPa SSW 8.0 km/h 16.1 km/h 97 % 0.0 mm
09:42 1.1 °C 0.7 °C 1009.7 hPa WSW 3.2 km/h 12.9 km/h 97 % 0.0 mm
09:47 1.1 °C 0.7 °C 1009.7 hPa SW 6.4 km/h 16.1 km/h 97 % 0.0 mm
09:52 1.1 °C 0.7 °C 1009.7 hPa West 1.6 km/h 16.1 km/h 97 % 0.0 mm
09:57 1.1 °C 0.7 °C 1009.7 hPa SW 6.4 km/h 16.1 km/h 97 % 0.0 mm
10:02 1.2 °C 0.8 °C 1009.7 hPa SW 1.6 km/h 14.5 km/h 97 % 0.0 mm
10:12 1.3 °C 0.9 °C 1009.7 hPa South 9.7 km/h 16.1 km/h 97 % 0.0 mm
10:17 1.4 °C 1.0 °C 1009.7 hPa SW 9.7 km/h 17.7 km/h 97 % 0.0 mm
10:27 1.6 °C 1.2 °C 1009.7 hPa SW 11.3 km/h 17.7 km/h 97 % 0.0 mm
10:32 1.5 °C 1.1 °C 1009.7 hPa SW 22.5 km/h 24.1 km/h 97 % 0.0 mm
10:42 1.7 °C 1.3 °C 1009.4 hPa SW 17.7 km/h 24.1 km/h 97 % 0.0 mm
10:47 1.7 °C 1.3 °C 1009.4 hPa SSW 12.9 km/h 22.5 km/h 97 % 0.0 mm
10:52 1.8 °C 1.4 °C 1009.4 hPa SW 4.8 km/h 20.9 km/h 97 % 0.0 mm
10:57 2.0 °C 1.6 °C 1009.7 hPa WSW 6.4 km/h 19.3 km/h 97 % 0.0 mm
11:02 2.1 °C 1.5 °C 1009.7 hPa SW 19.3 km/h 20.9 km/h 96 % 0.0 mm
11:07 2.2 °C 1.6 °C 1009.7 hPa West 6.4 km/h 20.9 km/h 96 % 0.0 mm
11:12 2.3 °C 1.6 °C 1009.4 hPa WSW 9.7 km/h 20.9 km/h 95 % 0.0 mm
11:17 2.4 °C 1.7 °C 1009.4 hPa SW 11.3 km/h 20.9 km/h 95 % 0.0 mm
11:22 2.6 °C 1.7 °C 1009.7 hPa SW 6.4 km/h 19.3 km/h 94 % 0.0 mm
11:27 2.7 °C 2.0 °C 1009.4 hPa WSW 8.0 km/h 19.3 km/h 95 % 0.0 mm
11:32 2.7 °C 1.8 °C 1009.4 hPa SW 11.3 km/h 20.9 km/h 94 % 0.0 mm
11:37 2.8 °C 1.8 °C 1009.4 hPa SW 11.3 km/h 20.9 km/h 93 % 0.0 mm
11:47 3.0 °C 2.0 °C 1009.4 hPa SW 3.2 km/h 22.5 km/h 93 % 0.0 mm
11:52 3.2 °C 2.2 °C 1009.4 hPa WSW 4.8 km/h 22.5 km/h 93 % 0.0 mm
12:02 3.4 °C 2.4 °C 1009.4 hPa SW 14.5 km/h 19.3 km/h 93 % 0.0 mm
12:07 3.4 °C 2.4 °C 1009.4 hPa SSW 8.0 km/h 20.9 km/h 93 % 0.0 mm
12:12 3.4 °C 2.5 °C 1009.4 hPa SSW 8.0 km/h 20.9 km/h 94 % 0.0 mm
12:17 3.4 °C 2.4 °C 1009.0 hPa WSW 17.7 km/h 24.1 km/h 93 % 0.0 mm
12:22 3.4 °C 2.4 °C 1009.0 hPa SW 8.0 km/h 24.1 km/h 93 % 0.0 mm
12:27 3.4 °C 2.4 °C 1009.0 hPa SSW 8.0 km/h 24.1 km/h 93 % 0.3 mm
12:32 3.4 °C 2.4 °C 1009.0 hPa SW 9.7 km/h 22.5 km/h 93 % 0.5 mm
12:42 3.5 °C 2.5 °C 1009.0 hPa SW 8.0 km/h 22.5 km/h 93 % 1.0 mm
12:52 3.7 °C 2.8 °C 1008.7 hPa WSW 12.9 km/h 25.7 km/h 94 % 1.5 mm
12:57 3.7 °C 2.7 °C 1008.7 hPa SW 16.1 km/h 25.7 km/h 93 % 1.8 mm
13:02 3.7 °C 2.8 °C 1008.7 hPa SSW 4.8 km/h 25.7 km/h 94 % 1.8 mm
13:07 3.7 °C 2.8 °C 1008.7 hPa SW 20.9 km/h 20.9 km/h 94 % 2.3 mm
13:12 3.7 °C 2.7 °C 1008.4 hPa WSW 6.4 km/h 22.5 km/h 93 % 2.5 mm
13:17 3.7 °C 2.7 °C 1008.4 hPa SW 16.1 km/h 29.0 km/h 93 % 2.5 mm
13:22 3.6 °C 2.6 °C 1008.4 hPa WSW 32.2 km/h 32.2 km/h 93 % 2.8 mm
13:32 3.6 °C 2.6 °C 1008.4 hPa WSW 14.5 km/h 35.4 km/h 93 % 2.5 mm
13:37 3.5 °C 2.3 °C 1008.4 hPa SW 17.7 km/h 35.4 km/h 92 % 2.3 mm
13:42 3.4 °C 2.4 °C 1008.4 hPa WSW 8.0 km/h 35.4 km/h 93 % 2.3 mm
13:47 3.3 °C 2.3 °C 1008.4 hPa WSW 19.3 km/h 35.4 km/h 93 % 2.0 mm
13:52 3.3 °C 2.3 °C 1008.4 hPa WSW 6.4 km/h 27.4 km/h 93 % 1.8 mm
13:57 3.2 °C 2.2 °C 1008.4 hPa SW 11.3 km/h 25.7 km/h 93 % 1.5 mm
14:02 3.1 °C 2.1 °C 1008.4 hPa SW 17.7 km/h 25.7 km/h 93 % 1.5 mm
14:07 3.0 °C 2.1 °C 1008.4 hPa SW 8.0 km/h 25.7 km/h 94 % 1.3 mm
14:17 2.9 °C 2.0 °C 1008.4 hPa West 9.7 km/h 33.8 km/h 94 % 1.0 mm
14:22 2.9 °C 2.0 °C 1008.4 hPa SW 12.9 km/h 33.8 km/h 94 % 0.8 mm
14:32 2.9 °C 2.0 °C 1008.0 hPa SW 14.5 km/h 29.0 km/h 94 % 0.5 mm
14:37 2.9 °C 2.0 °C 1008.0 hPa SW 16.1 km/h 29.0 km/h 94 % 0.5 mm
14:42 3.0 °C 2.1 °C 1008.0 hPa SSW 20.9 km/h 25.7 km/h 94 % 0.5 mm
14:47 3.1 °C 2.2 °C 1008.0 hPa SSW 12.9 km/h 25.7 km/h 94 % 0.5 mm
14:57 3.2 °C 2.5 °C 1008.0 hPa SW 6.4 km/h 27.4 km/h 95 % 0.5 mm
15:02 3.3 °C 2.6 °C 1008.0 hPa SW 12.9 km/h 27.4 km/h 95 % 0.5 mm
15:07 3.4 °C 2.7 °C 1008.0 hPa SW 11.3 km/h 22.5 km/h 95 % 0.5 mm
15:12 3.5 °C 2.8 °C 1008.0 hPa SW 17.7 km/h 22.5 km/h 95 % 0.5 mm
15:17 3.5 °C 2.8 °C 1008.0 hPa SW 11.3 km/h 22.5 km/h 95 % 0.5 mm
15:27 3.7 °C 3.1 °C 1008.0 hPa West 12.9 km/h 22.5 km/h 96 % 0.5 mm
15:32 3.7 °C 3.1 °C 1008.0 hPa WSW 14.5 km/h 24.1 km/h 96 % 0.3 mm
15:42 3.9 °C 3.3 °C 1007.7 hPa SW 9.7 km/h 24.1 km/h 96 % 0.3 mm
15:47 3.9 °C 3.3 °C 1008.0 hPa SSW 11.3 km/h 24.1 km/h 96 % 0.3 mm
15:52 3.9 °C 3.3 °C 1008.0 hPa SSW 4.8 km/h 20.9 km/h 96 % 0.3 mm
15:57 4.0 °C 3.4 °C 1007.7 hPa SW 9.7 km/h 20.9 km/h 96 % 0.3 mm
16:02 4.0 °C 3.4 °C 1008.0 hPa SW 14.5 km/h 19.3 km/h 96 % 0.3 mm
16:07 4.1 °C 3.5 °C 1008.0 hPa SW 9.7 km/h 19.3 km/h 96 % 0.3 mm
16:12 4.1 °C 3.5 °C 1008.0 hPa West 9.7 km/h 19.3 km/h 96 % 0.3 mm
16:17 4.1 °C 3.5 °C 1008.0 hPa WSW 8.0 km/h 17.7 km/h 96 % 0.3 mm
16:22 4.1 °C 3.5 °C 1008.0 hPa SW 14.5 km/h 20.9 km/h 96 % 0.3 mm
16:32 4.2 °C 3.6 °C 1007.7 hPa SW 11.3 km/h 20.9 km/h 96 % 0.3 mm
16:37 4.2 °C 3.6 °C 1007.7 hPa SW 11.3 km/h 19.3 km/h 96 % 0.3 mm
16:42 4.2 °C 3.6 °C 1007.7 hPa West 6.4 km/h 19.3 km/h 96 % 0.5 mm
16:47 4.2 °C 3.6 °C 1007.7 hPa SW 9.7 km/h 19.3 km/h 96 % 0.8 mm
16:52 4.2 °C 3.6 °C 1007.7 hPa SW 9.7 km/h 19.3 km/h 96 % 1.0 mm
16:57 4.2 °C 3.6 °C 1007.7 hPa SW 3.2 km/h 17.7 km/h 96 % 0.8 mm
17:02 4.3 °C 3.7 °C 1007.7 hPa SW 8.0 km/h 17.7 km/h 96 % 0.8 mm
17:07 4.3 °C 3.7 °C 1007.7 hPa SW 9.7 km/h 16.1 km/h 96 % 0.8 mm
17:12 4.3 °C 3.7 °C 1007.7 hPa SW 4.8 km/h 14.5 km/h 96 % 0.8 mm
17:17 4.3 °C 3.7 °C 1007.7 hPa WSW 8.0 km/h 14.5 km/h 96 % 1.0 mm
17:22 4.3 °C 3.7 °C 1007.7 hPa WSW 3.2 km/h 14.5 km/h 96 % 1.0 mm
17:27 4.3 °C 3.9 °C 1007.7 hPa WSW 9.7 km/h 17.7 km/h 97 % 1.0 mm
17:32 4.4 °C 3.8 °C 1007.7 hPa SW 4.8 km/h 17.7 km/h 96 % 1.3 mm
17:37 4.4 °C 3.8 °C 1007.7 hPa SW 6.4 km/h 17.7 km/h 96 % 1.0 mm
17:42 4.4 °C 4.0 °C 1007.7 hPa WSW 3.2 km/h 12.9 km/h 97 % 0.8 mm
17:47 4.4 °C 4.0 °C 1007.7 hPa SSW 6.4 km/h 12.9 km/h 97 % 0.5 mm
17:52 4.4 °C 4.0 °C 1007.7 hPa SW 4.8 km/h 12.9 km/h 97 % 0.5 mm
17:57 4.5 °C 4.1 °C 1007.7 hPa SW 4.8 km/h 9.7 km/h 97 % 0.5 mm
18:02 4.5 °C 4.1 °C 1007.7 hPa SW 3.2 km/h 9.7 km/h 97 % 0.5 mm
18:07 4.5 °C 4.1 °C 1007.7 hPa SW 1.6 km/h 9.7 km/h 97 % 0.5 mm
18:12 4.6 °C 4.2 °C 1008.0 hPa SW 8.0 km/h 11.3 km/h 97 % 0.3 mm
18:17 4.6 °C 4.2 °C 1008.0 hPa SW 4.8 km/h 11.3 km/h 97 % 0.3 mm
18:22 4.7 °C 4.3 °C 1008.0 hPa South 3.2 km/h 9.7 km/h 97 % 0.3 mm
18:27 4.7 °C 4.3 °C 1008.0 hPa SW 3.2 km/h 9.7 km/h 97 % 0.3 mm
18:32 4.7 °C 4.3 °C 1008.0 hPa SSW 1.6 km/h 9.7 km/h 97 % 0.0 mm
18:37 4.7 °C 4.3 °C 1008.0 hPa West 6.4 km/h 9.7 km/h 97 % 0.0 mm
18:42 4.8 °C 4.4 °C 1008.0 hPa WSW 3.2 km/h 9.7 km/h 97 % 0.0 mm
18:52 4.8 °C 4.4 °C 1008.0 hPa WSW 3.2 km/h 8.0 km/h 97 % 0.0 mm
19:02 5.0 °C 4.6 °C 1008.4 hPa Calm   9.7 km/h 97 % 0.0 mm
19:07 5.0 °C 4.6 °C 1008.4 hPa WNW 3.2 km/h 9.7 km/h 97 % 0.3 mm
19:17 5.0 °C 4.4 °C 1008.4 hPa WNW 12.9 km/h 14.5 km/h 96 % 0.3 mm
19:22 5.0 °C 4.4 °C 1008.4 hPa WNW 8.0 km/h 16.1 km/h 96 % 0.3 mm
19:27 4.9 °C 4.3 °C 1008.4 hPa WNW 6.4 km/h 16.1 km/h 96 % 0.5 mm
19:32 4.9 °C 4.3 °C 1008.4 hPa WSW 3.2 km/h 16.1 km/h 96 % 0.5 mm
19:37 4.9 °C 4.3 °C 1008.4 hPa WNW 11.3 km/h 11.3 km/h 96 % 0.5 mm
19:47 4.8 °C 4.1 °C 1008.4 hPa WNW 4.8 km/h 12.9 km/h 95 % 0.5 mm
19:52 4.6 °C 3.9 °C 1008.4 hPa WNW 6.4 km/h 17.7 km/h 95 % 0.5 mm
20:02 4.4 °C 3.7 °C 1008.7 hPa WNW 6.4 km/h 22.5 km/h 95 % 0.3 mm
20:07 4.3 °C 3.4 °C 1008.7 hPa WNW 8.0 km/h 22.5 km/h 94 % 0.3 mm
20:17 3.9 °C 3.2 °C 1008.7 hPa WNW 9.7 km/h 20.9 km/h 95 % 0.3 mm
20:22 3.7 °C 2.8 °C 1009.0 hPa NW 8.0 km/h 22.5 km/h 94 % 0.0 mm
20:32 3.2 °C 2.5 °C 1009.0 hPa NW 12.9 km/h 22.5 km/h 95 % 0.0 mm
20:42 2.9 °C 2.3 °C 1009.4 hPa NW 9.7 km/h 25.7 km/h 96 % 0.0 mm
20:52 2.8 °C 2.2 °C 1009.4 hPa North 17.7 km/h 25.7 km/h 96 % 0.0 mm
20:57 2.8 °C 2.2 °C 1009.4 hPa NW 4.8 km/h 19.3 km/h 96 % 0.0 mm
21:02 2.7 °C 2.1 °C 1009.4 hPa WNW 6.4 km/h 20.9 km/h 96 % 0.0 mm
21:12 2.7 °C 2.1 °C 1009.4 hPa NNW 4.8 km/h 20.9 km/h 96 % 0.0 mm
21:17 2.7 °C 2.1 °C 1009.4 hPa WNW 16.1 km/h 16.1 km/h 96 % 0.0 mm
21:22 2.6 °C 2.0 °C 1009.7 hPa WNW 4.8 km/h 19.3 km/h 96 % 0.0 mm
21:27 2.6 °C 2.0 °C 1009.7 hPa WNW 8.0 km/h 19.3 km/h 96 % 0.0 mm
21:32 2.6 °C 2.0 °C 1009.7 hPa WNW 6.4 km/h 19.3 km/h 96 % 0.0 mm
21:37 2.6 °C 2.0 °C 1009.7 hPa NNW 14.5 km/h 19.3 km/h 96 % 0.0 mm
21:42 2.6 °C 2.0 °C 1009.7 hPa NW 9.7 km/h 24.1 km/h 96 % 0.0 mm
21:47 2.6 °C 2.0 °C 1009.7 hPa North 4.8 km/h 24.1 km/h 96 % 0.0 mm
21:52 2.6 °C 2.0 °C 1010.0 hPa NW 6.4 km/h 24.1 km/h 96 % 0.0 mm
21:57 2.6 °C 2.0 °C 1010.0 hPa NNW 8.0 km/h 16.1 km/h 96 % 0.0 mm
22:07 2.6 °C 2.2 °C 1010.0 hPa NNW 3.2 km/h 20.9 km/h 97 % 0.0 mm
22:12 2.6 °C 2.2 °C 1010.0 hPa WNW 3.2 km/h 20.9 km/h 97 % 0.0 mm
22:17 2.6 °C 2.2 °C 1010.0 hPa NW 6.4 km/h 20.9 km/h 97 % 0.0 mm
22:22 2.6 °C 2.2 °C 1010.0 hPa West 16.1 km/h 20.9 km/h 97 % 0.0 mm
22:27 2.6 °C 2.2 °C 1010.0 hPa NW 8.0 km/h 24.1 km/h 97 % 0.0 mm
22:32 2.6 °C 2.2 °C 1010.0 hPa WNW 14.5 km/h 24.1 km/h 97 % 0.0 mm
22:37 2.6 °C 2.2 °C 1010.0 hPa WNW 4.8 km/h 24.1 km/h 97 % 0.0 mm
22:42 2.6 °C 2.2 °C 1010.0 hPa West 6.4 km/h 19.3 km/h 97 % 0.0 mm
22:47 2.6 °C 2.2 °C 1010.0 hPa NNW 6.4 km/h 17.7 km/h 97 % 0.0 mm
22:52 2.6 °C 2.2 °C 1010.0 hPa NW 4.8 km/h 20.9 km/h 97 % 0.0 mm
22:57 2.6 °C 2.2 °C 1010.4 hPa WNW 8.0 km/h 20.9 km/h 97 % 0.0 mm
23:02 2.7 °C 2.3 °C 1010.4 hPa NW 9.7 km/h 20.9 km/h 97 % 0.0 mm
23:07 2.7 °C 2.3 °C 1010.4 hPa NW 8.0 km/h 20.9 km/h 97 % 0.0 mm
23:12 2.7 °C 2.3 °C 1010.4 hPa NW 1.6 km/h 20.9 km/h 97 % 0.0 mm
23:17 2.7 °C 2.3 °C 1010.4 hPa NW 9.7 km/h 20.9 km/h 97 % 0.0 mm
23:22 2.7 °C 2.3 °C 1010.4 hPa WNW 8.0 km/h 17.7 km/h 97 % 0.0 mm
23:27 2.7 °C 2.3 °C 1010.4 hPa NNW 4.8 km/h 19.3 km/h 97 % 0.0 mm
23:32 2.7 °C 2.3 °C 1010.4 hPa NW 11.3 km/h 19.3 km/h 97 % 0.0 mm
23:42 2.7 °C 2.3 °C 1010.7 hPa WNW 4.8 km/h 22.5 km/h 97 % 0.0 mm
23:47 2.7 °C 2.3 °C 1010.7 hPa NNW 12.9 km/h 22.5 km/h 97 % 0.0 mm
23:52 2.7 °C 2.3 °C 1010.7 hPa NNW 6.4 km/h 22.5 km/h 97 % 0.0 mm
23:57 2.7 °C 2.3 °C 1010.7 hPa WNW 9.7 km/h 16.1 km/h 97 % 0.0 mm
Meteo18
Compliments of Weather Underground - 4 mb

Script developed by  Jim McMurry - jmcmurry@mwt.net Adapted for the template by  Wim van der Kuil - Leuven-Template.eu

You find our weather info also at:

European Weather Network

Weather Underground

Equipment we use:

Weather-station
Davis Vue

Weather-program
Meteohub

Weather-server
Raspberry PI 2 B+

Provider
1 and 1

Davis Vue

Meteohub

Raspberry PI 2 B+

1 and 1